• pl
  • eng

Awiacja
TAF dla lotnisk wojskowych 10:30 30.04.2017

TAF EPMB 300800Z 3009/3018 03008KT 9999 SCT035 BECMG 3010/3013 CAVOK=

TAF EPMM 300800Z 3009/3018 02006KT 9999 SCT025 BECMG 3011/3014 CAVOK
=

TAF EPOK 300800Z 3009/3018 07010KT 9999 SCT035 BECMG 3014/3016
CAVOK =

TAF EPPW 300800Z 3009/3018 07010KT 9999 BKN023 BECMG 3011/3013 CAVOK
=

TAF EPSN 300800Z 3009/3018 09006KT CAVOK TEMPO 3009/3015 SCT033=
Awiacja.imgw.pl jest pogodowym serwisem informacyjnym
Instytutu Meteorologii i Gospodarki Wodnej Państwowego Instytutu Badawczego.
Copyright IMGW PIB 2009-2011© Wszelkie prawa zastrzeżone.